sensor_id;sensor_type;location;lat;lon;timestamp;pressure;altitude;pressure_sealevel;temperature;humidity
5283;BME280;15376;48.540;9.268;2023-09-19T00:01:06;97208.44;;;15.46;100.00
5283;BME280;15376;48.540;9.268;2023-09-19T00:03:35;97196.81;;;15.34;100.00
5283;BME280;15376;48.540;9.268;2023-09-19T00:06:04;97211.13;;;15.46;100.00
5283;BME280;15376;48.540;9.268;2023-09-19T00:08:30;97210.53;;;15.44;100.00
5283;BME280;15376;48.540;9.268;2023-09-19T00:10:56;97193.94;;;15.35;100.00
5283;BME280;15376;48.540;9.268;2023-09-19T00:13:21;97212.38;;;15.44;100.00
5283;BME280;15376;48.540;9.268;2023-09-19T00:15:47;97210.38;;;15.39;100.00
5283;BME280;15376;48.540;9.268;2023-09-19T00:18:20;97205.06;;;15.32;100.00
5283;BME280;15376;48.540;9.268;2023-09-19T00:20:46;97207.09;;;15.37;100.00
5283;BME280;15376;48.540;9.268;2023-09-19T00:23:16;97199.94;;;15.31;100.00
5283;BME280;15376;48.540;9.268;2023-09-19T00:25:42;97218.44;;;15.32;100.00
5283;BME280;15376;48.540;9.268;2023-09-19T00:28:07;97197.53;;;15.23;100.00
5283;BME280;15376;48.540;9.268;2023-09-19T00:30:36;97206.75;;;15.27;100.00
5283;BME280;15376;48.540;9.268;2023-09-19T00:33:03;97197.19;;;15.19;100.00
5283;BME280;15376;48.540;9.268;2023-09-19T00:35:31;97212.28;;;15.32;100.00
5283;BME280;15376;48.540;9.268;2023-09-19T00:37:56;97212.88;;;15.34;100.00
5283;BME280;15376;48.540;9.268;2023-09-19T00:40:22;97188.91;;;15.21;100.00
5283;BME280;15376;48.540;9.268;2023-09-19T00:42:48;97205.06;;;15.32;100.00
5283;BME280;15376;48.540;9.268;2023-09-19T00:45:16;97201.19;;;15.28;100.00
5283;BME280;15376;48.540;9.268;2023-09-19T00:47:44;97205.44;;;15.36;100.00
5283;BME280;15376;48.540;9.268;2023-09-19T00:50:15;97202.19;;;15.34;100.00
5283;BME280;15376;48.540;9.268;2023-09-19T00:52:42;97213.69;;;15.34;100.00
5283;BME280;15376;48.540;9.268;2023-09-19T00:55:09;97213.03;;;15.39;100.00
5283;BME280;15376;48.540;9.268;2023-09-19T00:57:36;97211.19;;;15.40;100.00
5283;BME280;15376;48.540;9.268;2023-09-19T01:00:04;97217.72;;;15.44;100.00
5283;BME280;15376;48.540;9.268;2023-09-19T01:02:32;97193.97;;;15.29;100.00
5283;BME280;15376;48.540;9.268;2023-09-19T01:04:58;97186.63;;;15.24;100.00
5283;BME280;15376;48.540;9.268;2023-09-19T01:07:25;97192.63;;;15.20;100.00
5283;BME280;15376;48.540;9.268;2023-09-19T01:09:50;97208.84;;;15.25;100.00
5283;BME280;15376;48.540;9.268;2023-09-19T01:12:22;97215.56;;;15.34;100.00
5283;BME280;15376;48.540;9.268;2023-09-19T01:15:07;97226.47;;;15.32;100.00
5283;BME280;15376;48.540;9.268;2023-09-19T01:18:08;97228.13;;;15.33;100.00
5283;BME280;15376;48.540;9.268;2023-09-19T01:32:01;97221.72;;;15.34;100.00
5283;BME280;15376;48.540;9.268;2023-09-19T01:34:43;97231.16;;;15.37;100.00
5283;BME280;15376;48.540;9.268;2023-09-19T01:37:10;97229.75;;;15.34;100.00
5283;BME280;15376;48.540;9.268;2023-09-19T01:39:36;97226.84;;;15.36;100.00
5283;BME280;15376;48.540;9.268;2023-09-19T01:42:21;97224.00;;;15.31;100.00
5283;BME280;15376;48.540;9.268;2023-09-19T01:45:01;97223.41;;;15.29;100.00
5283;BME280;15376;48.540;9.268;2023-09-19T01:47:44;97215.91;;;15.19;100.00
5283;BME280;15376;48.540;9.268;2023-09-19T01:50:25;97224.84;;;15.31;100.00
5283;BME280;15376;48.540;9.268;2023-09-19T01:52:57;97237.13;;;15.39;100.00
5283;BME280;15376;48.540;9.268;2023-09-19T01:55:28;97249.84;;;15.44;100.00
5283;BME280;15376;48.540;9.268;2023-09-19T01:58:01;97254.00;;;15.40;100.00
5283;BME280;15376;48.540;9.268;2023-09-19T02:00:30;97251.81;;;15.30;100.00
5283;BME280;15376;48.540;9.268;2023-09-19T02:02:57;97264.75;;;15.33;100.00
5283;BME280;15376;48.540;9.268;2023-09-19T02:05:25;97263.06;;;15.39;100.00
5283;BME280;15376;48.540;9.268;2023-09-19T02:07:51;97246.13;;;15.20;100.00
5283;BME280;15376;48.540;9.268;2023-09-19T02:10:18;97275.28;;;15.28;100.00
5283;BME280;15376;48.540;9.268;2023-09-19T02:12:43;97258.09;;;15.17;100.00
5283;BME280;15376;48.540;9.268;2023-09-19T02:15:09;97275.66;;;15.31;100.00
5283;BME280;15376;48.540;9.268;2023-09-19T02:17:34;97261.94;;;15.21;100.00
5283;BME280;15376;48.540;9.268;2023-09-19T02:20:00;97286.38;;;15.31;100.00
5283;BME280;15376;48.540;9.268;2023-09-19T02:22:26;97276.00;;;15.17;100.00
5283;BME280;15376;48.540;9.268;2023-09-19T02:24:52;97282.41;;;15.16;100.00
5283;BME280;15376;48.540;9.268;2023-09-19T02:27:19;97276.22;;;15.15;100.00
5283;BME280;15376;48.540;9.268;2023-09-19T02:29:44;97293.25;;;15.21;100.00
5283;BME280;15376;48.540;9.268;2023-09-19T02:32:10;97276.88;;;15.11;100.00
5283;BME280;15376;48.540;9.268;2023-09-19T02:34:36;97265.41;;;15.04;100.00
5283;BME280;15376;48.540;9.268;2023-09-19T02:37:05;97255.00;;;14.89;100.00
5283;BME280;15376;48.540;9.268;2023-09-19T02:39:31;97284.28;;;15.09;100.00
5283;BME280;15376;48.540;9.268;2023-09-19T02:41:56;97274.28;;;14.97;100.00
5283;BME280;15376;48.540;9.268;2023-09-19T02:44:22;97275.31;;;14.96;100.00
5283;BME280;15376;48.540;9.268;2023-09-19T02:46:49;97288.84;;;15.01;100.00
5283;BME280;15376;48.540;9.268;2023-09-19T02:49:14;97280.44;;;14.98;100.00
5283;BME280;15376;48.540;9.268;2023-09-19T02:51:40;97286.00;;;14.96;100.00
5283;BME280;15376;48.540;9.268;2023-09-19T02:54:05;97270.03;;;14.83;100.00
5283;BME280;15376;48.540;9.268;2023-09-19T02:56:31;97286.44;;;14.93;100.00
5283;BME280;15376;48.540;9.268;2023-09-19T02:58:57;97295.03;;;15.02;100.00
5283;BME280;15376;48.540;9.268;2023-09-19T03:01:23;97300.00;;;14.98;100.00
5283;BME280;15376;48.540;9.268;2023-09-19T03:03:48;97303.25;;;15.00;100.00
5283;BME280;15376;48.540;9.268;2023-09-19T03:06:14;97299.34;;;15.03;100.00
5283;BME280;15376;48.540;9.268;2023-09-19T03:08:41;97286.69;;;14.85;100.00
5283;BME280;15376;48.540;9.268;2023-09-19T03:11:10;97290.19;;;14.86;100.00
5283;BME280;15376;48.540;9.268;2023-09-19T03:13:37;97305.75;;;14.95;100.00
5283;BME280;15376;48.540;9.268;2023-09-19T03:16:04;97309.91;;;14.91;100.00
5283;BME280;15376;48.540;9.268;2023-09-19T03:18:31;97308.88;;;14.92;100.00
5283;BME280;15376;48.540;9.268;2023-09-19T03:20:57;97313.19;;;14.93;100.00
5283;BME280;15376;48.540;9.268;2023-09-19T03:23:25;97297.13;;;14.93;100.00
5283;BME280;15376;48.540;9.268;2023-09-19T03:25:51;97293.81;;;14.98;100.00
5283;BME280;15376;48.540;9.268;2023-09-19T03:28:17;97305.25;;;15.12;100.00
5283;BME280;15376;48.540;9.268;2023-09-19T03:30:43;97285.59;;;14.99;100.00
5283;BME280;15376;48.540;9.268;2023-09-19T03:33:09;97275.31;;;14.96;100.00
5283;BME280;15376;48.540;9.268;2023-09-19T03:35:37;97310.19;;;15.15;100.00
5283;BME280;15376;48.540;9.268;2023-09-19T03:38:03;97285.59;;;14.99;100.00
5283;BME280;15376;48.540;9.268;2023-09-19T03:40:29;97313.00;;;15.20;100.00
5283;BME280;15376;48.540;9.268;2023-09-19T03:42:55;97306.03;;;15.19;100.00
5283;BME280;15376;48.540;9.268;2023-09-19T03:45:20;97297.84;;;15.14;100.00
5283;BME280;15376;48.540;9.268;2023-09-19T03:47:46;97309.97;;;15.16;100.00
5283;BME280;15376;48.540;9.268;2023-09-19T03:50:14;97271.81;;;14.96;100.00
5283;BME280;15376;48.540;9.268;2023-09-19T03:52:45;97306.28;;;15.11;100.00
5283;BME280;15376;48.540;9.268;2023-09-19T03:55:11;97315.63;;;15.26;100.00
5283;BME280;15376;48.540;9.268;2023-09-19T03:57:37;97313.38;;;15.23;100.00
5283;BME280;15376;48.540;9.268;2023-09-19T04:00:03;97302.59;;;15.12;100.00
5283;BME280;15376;48.540;9.268;2023-09-19T04:02:30;97304.66;;;15.10;100.00
5283;BME280;15376;48.540;9.268;2023-09-19T04:04:58;97319.78;;;15.22;100.00
5283;BME280;15376;48.540;9.268;2023-09-19T04:07:23;97316.28;;;15.22;100.00
5283;BME280;15376;48.540;9.268;2023-09-19T04:09:51;97329.81;;;15.27;100.00
5283;BME280;15376;48.540;9.268;2023-09-19T04:12:18;97297.66;;;15.09;100.00
5283;BME280;15376;48.540;9.268;2023-09-19T04:14:44;97315.03;;;15.24;100.00
5283;BME280;15376;48.540;9.268;2023-09-19T04:17:10;97305.44;;;15.17;100.00
5283;BME280;15376;48.540;9.268;2023-09-19T04:19:36;97285.16;;;15.02;100.00
5283;BME280;15376;48.540;9.268;2023-09-19T04:22:01;97313.59;;;15.22;100.00
5283;BME280;15376;48.540;9.268;2023-09-19T04:24:27;97306.03;;;15.19;100.00
5283;BME280;15376;48.540;9.268;2023-09-19T04:26:52;97292.13;;;15.04;100.00
5283;BME280;15376;48.540;9.268;2023-09-19T04:29:18;97294.81;;;15.04;100.00
5283;BME280;15376;48.540;9.268;2023-09-19T04:31:44;97284.78;;;14.92;100.00
5283;BME280;15376;48.540;9.268;2023-09-19T04:34:13;97311.03;;;15.09;100.00
5283;BME280;15376;48.540;9.268;2023-09-19T04:36:43;97319.09;;;15.02;100.00
5283;BME280;15376;48.540;9.268;2023-09-19T04:39:09;97320.59;;;14.91;100.00
5283;BME280;15376;48.540;9.268;2023-09-19T04:41:36;97309.59;;;14.75;100.00
5283;BME280;15376;48.540;9.268;2023-09-19T04:44:05;97334.59;;;14.87;100.00
5283;BME280;15376;48.540;9.268;2023-09-19T04:46:30;97328.84;;;14.83;100.00
5283;BME280;15376;48.540;9.268;2023-09-19T04:48:55;97291.97;;;14.60;100.00
5283;BME280;15376;48.540;9.268;2023-09-19T04:51:21;97316.19;;;14.72;100.00
5283;BME280;15376;48.540;9.268;2023-09-19T04:53:46;97325.00;;;14.79;100.00
5283;BME280;15376;48.540;9.268;2023-09-19T04:56:13;97298.31;;;14.66;100.00
5283;BME280;15376;48.540;9.268;2023-09-19T04:58:38;97312.34;;;14.55;100.00
5283;BME280;15376;48.540;9.268;2023-09-19T05:01:03;97336.34;;;14.68;100.00
5283;BME280;15376;48.540;9.268;2023-09-19T05:03:29;97326.28;;;14.70;100.00
5283;BME280;15376;48.540;9.268;2023-09-19T05:05:54;97328.47;;;14.80;100.00
5283;BME280;15376;48.540;9.268;2023-09-19T05:08:20;97334.81;;;14.85;100.00
5283;BME280;15376;48.540;9.268;2023-09-19T05:10:47;97337.47;;;14.85;100.00
5283;BME280;15376;48.540;9.268;2023-09-19T05:13:12;97342.59;;;14.93;100.00
5283;BME280;15376;48.540;9.268;2023-09-19T05:15:38;97336.25;;;14.88;100.00
5283;BME280;15376;48.540;9.268;2023-09-19T05:18:04;97328.84;;;14.83;100.00
5283;BME280;15376;48.540;9.268;2023-09-19T05:20:31;97319.81;;;14.84;100.00
5283;BME280;15376;48.540;9.268;2023-09-19T05:23:02;97344.78;;;15.10;100.00
5283;BME280;15376;48.540;9.268;2023-09-19T05:25:35;97343.09;;;15.15;100.00
5283;BME280;15376;48.540;9.268;2023-09-19T05:28:07;97330.75;;;15.14;100.00
5283;BME280;15376;48.540;9.268;2023-09-19T05:30:33;97338.72;;;15.21;100.00
5283;BME280;15376;48.540;9.268;2023-09-19T05:33:01;97341.56;;;15.26;100.00
5283;BME280;15376;48.540;9.268;2023-09-19T05:35:27;97363.72;;;15.40;100.00
5283;BME280;15376;48.540;9.268;2023-09-19T05:37:53;97326.53;;;15.25;100.00
5283;BME280;15376;48.540;9.268;2023-09-19T05:40:20;97359.53;;;15.50;100.00
5283;BME280;15376;48.540;9.268;2023-09-19T05:42:46;97345.97;;;15.45;100.00
5283;BME280;15376;48.540;9.268;2023-09-19T05:45:12;97361.97;;;15.58;100.00
5283;BME280;15376;48.540;9.268;2023-09-19T05:47:41;97363.00;;;15.57;100.00
5283;BME280;15376;48.540;9.268;2023-09-19T05:50:08;97356.63;;;15.58;100.00
5283;BME280;15376;48.540;9.268;2023-09-19T05:52:35;97373.66;;;15.64;100.00
5283;BME280;15376;48.540;9.268;2023-09-19T05:55:05;97376.53;;;15.62;100.00
5283;BME280;15376;48.540;9.268;2023-09-19T05:57:33;97370.38;;;15.62;100.00
5283;BME280;15376;48.540;9.268;2023-09-19T05:59:59;97363.63;;;15.59;100.00
5283;BME280;15376;48.540;9.268;2023-09-19T06:02:24;97386.16;;;15.70;100.00
5283;BME280;15376;48.540;9.268;2023-09-19T06:04:54;97354.00;;;15.45;100.00
5283;BME280;15376;48.540;9.268;2023-09-19T06:07:21;97402.69;;;15.60;100.00
5283;BME280;15376;48.540;9.268;2023-09-19T06:09:47;97381.94;;;15.56;100.00
5283;BME280;15376;48.540;9.268;2023-09-19T06:12:12;97396.22;;;15.75;100.00
5283;BME280;15376;48.540;9.268;2023-09-19T06:14:43;97392.72;;;15.74;100.00
5283;BME280;15376;48.540;9.268;2023-09-19T06:17:08;97397.16;;;15.87;100.00
5283;BME280;15376;48.540;9.268;2023-09-19T06:19:34;97403.28;;;15.94;100.00
5283;BME280;15376;48.540;9.268;2023-09-19T06:21:59;97389.28;;;15.67;100.00
5283;BME280;15376;48.540;9.268;2023-09-19T06:24:25;97402.00;;;15.72;100.00
5283;BME280;15376;48.540;9.268;2023-09-19T06:26:51;97417.22;;;15.78;100.00
5283;BME280;15376;48.540;9.268;2023-09-19T06:29:17;97415.41;;;15.72;100.00
5283;BME280;15376;48.540;9.268;2023-09-19T06:31:43;97398.78;;;15.63;100.00
5283;BME280;15376;48.540;9.268;2023-09-19T06:34:10;97408.56;;;15.76;100.00
5283;BME280;15376;48.540;9.268;2023-09-19T06:36:35;97410.66;;;15.74;100.00
5283;BME280;15376;48.540;9.268;2023-09-19T06:39:00;97431.16;;;15.86;100.00
5283;BME280;15376;48.540;9.268;2023-09-19T06:41:26;97419.19;;;15.89;100.00
5283;BME280;15376;48.540;9.268;2023-09-19T06:43:51;97438.03;;;16.00;100.00
5283;BME280;15376;48.540;9.268;2023-09-19T06:46:19;97431.19;;;16.05;100.00
5283;BME280;15376;48.540;9.268;2023-09-19T06:48:45;97440.13;;;16.23;100.00
5283;BME280;15376;48.540;9.268;2023-09-19T06:51:12;97447.72;;;16.26;100.00
5283;BME280;15376;48.540;9.268;2023-09-19T06:53:40;97447.56;;;16.40;100.00
5283;BME280;15376;48.540;9.268;2023-09-19T06:56:06;97462.06;;;16.39;100.00
5283;BME280;15376;48.540;9.268;2023-09-19T06:58:31;97456.59;;;16.45;100.00
5283;BME280;15376;48.540;9.268;2023-09-19T07:00:56;97451.47;;;16.44;100.00
5283;BME280;15376;48.540;9.268;2023-09-19T07:03:22;97447.91;;;16.50;100.00
5283;BME280;15376;48.540;9.268;2023-09-19T07:05:51;97450.53;;;16.56;100.00
5283;BME280;15376;48.540;9.268;2023-09-19T07:08:16;97438.50;;;16.41;100.00
5283;BME280;15376;48.540;9.268;2023-09-19T07:10:42;97435.09;;;16.52;100.00
5283;BME280;15376;48.540;9.268;2023-09-19T07:13:14;97442.84;;;16.60;100.00
5283;BME280;15376;48.540;9.268;2023-09-19T07:15:42;97467.78;;;16.67;100.00
5283;BME280;15376;48.540;9.268;2023-09-19T07:18:15;97452.88;;;16.71;100.00
5283;BME280;15376;48.540;9.268;2023-09-19T07:20:45;97450.84;;;16.85;100.00
5283;BME280;15376;48.540;9.268;2023-09-19T07:23:17;97456.31;;;16.96;100.00
5283;BME280;15376;48.540;9.268;2023-09-19T07:25:43;97458.69;;;17.05;100.00
5283;BME280;15376;48.540;9.268;2023-09-19T07:28:09;97461.22;;;17.18;100.00
5283;BME280;15376;48.540;9.268;2023-09-19T07:30:36;97464.47;;;17.20;100.00
5283;BME280;15376;48.540;9.268;2023-09-19T07:33:02;97454.09;;;17.23;100.00
5283;BME280;15376;48.540;9.268;2023-09-19T07:35:30;97475.78;;;17.40;100.00
5283;BME280;15376;48.540;9.268;2023-09-19T07:37:55;97466.47;;;17.43;100.00
5283;BME280;15376;48.540;9.268;2023-09-19T07:40:21;97474.59;;;17.54;100.00
5283;BME280;15376;48.540;9.268;2023-09-19T07:42:49;97473.66;;;17.60;100.00
5283;BME280;15376;48.540;9.268;2023-09-19T07:45:16;97482.88;;;17.64;100.00
5283;BME280;15376;48.540;9.268;2023-09-19T07:47:49;97458.28;;;17.67;100.00
5283;BME280;15376;48.540;9.268;2023-09-19T07:50:16;97479.81;;;17.79;100.00
5283;BME280;15376;48.540;9.268;2023-09-19T07:52:44;97474.09;;;17.76;100.00
5283;BME280;15376;48.540;9.268;2023-09-19T07:55:10;97482.88;;;17.83;100.00
5283;BME280;15376;48.540;9.268;2023-09-19T07:57:37;97487.13;;;17.90;100.00
5283;BME280;15376;48.540;9.268;2023-09-19T08:00:03;97481.84;;;17.84;100.00
5283;BME280;15376;48.540;9.268;2023-09-19T08:02:39;97489.56;;;17.92;100.00
5283;BME280;15376;48.540;9.268;2023-09-19T08:05:05;97490.16;;;18.06;100.00
5283;BME280;15376;48.540;9.268;2023-09-19T08:07:32;97485.38;;;18.08;100.00
5283;BME280;15376;48.540;9.268;2023-09-19T08:09:57;97490.59;;;18.32;100.00
5283;BME280;15376;48.540;9.268;2023-09-19T08:12:24;97502.25;;;18.26;100.00
5283;BME280;15376;48.540;9.268;2023-09-19T08:14:49;97489.41;;;18.28;100.00
5283;BME280;15376;48.540;9.268;2023-09-19T08:17:15;97487.78;;;18.27;100.00
5283;BME280;15376;48.540;9.268;2023-09-19T08:19:41;97507.91;;;18.37;100.00
5283;BME280;15376;48.540;9.268;2023-09-19T08:22:07;97508.34;;;18.33;100.00
5283;BME280;15376;48.540;9.268;2023-09-19T08:24:35;97504.59;;;18.23;100.00
5283;BME280;15376;48.540;9.268;2023-09-19T08:27:01;97511.13;;;18.15;100.00
5283;BME280;15376;48.540;9.268;2023-09-19T08:29:29;97490.06;;;18.12;100.00
5283;BME280;15376;48.540;9.268;2023-09-19T08:31:58;97504.81;;;18.21;100.00
5283;BME280;15376;48.540;9.268;2023-09-19T08:34:25;97517.47;;;18.56;100.00
5283;BME280;15376;48.540;9.268;2023-09-19T08:36:54;97520.22;;;18.79;100.00
5283;BME280;15376;48.540;9.268;2023-09-19T08:39:23;97525.34;;;19.16;100.00
5283;BME280;15376;48.540;9.268;2023-09-19T08:41:49;97519.56;;;19.36;100.00
5283;BME280;15376;48.540;9.268;2023-09-19T08:44:15;97521.31;;;19.53;100.00
5283;BME280;15376;48.540;9.268;2023-09-19T08:46:41;97512.75;;;19.45;100.00
5283;BME280;15376;48.540;9.268;2023-09-19T08:52:27;97526.00;;;19.35;100.00
5283;BME280;15376;48.540;9.268;2023-09-19T08:54:58;97518.22;;;19.50;100.00
5283;BME280;15376;48.540;9.268;2023-09-19T08:57:28;97513.22;;;19.53;100.00
5283;BME280;15376;48.540;9.268;2023-09-19T08:59:55;97532.22;;;19.75;100.00
5283;BME280;15376;48.540;9.268;2023-09-19T09:02:22;97509.84;;;19.75;100.00
5283;BME280;15376;48.540;9.268;2023-09-19T09:04:49;97530.75;;;20.13;100.00
5283;BME280;15376;48.540;9.268;2023-09-19T09:07:16;97529.41;;;20.27;100.00
5283;BME280;15376;48.540;9.268;2023-09-19T09:09:42;97523.69;;;20.23;100.00
5283;BME280;15376;48.540;9.268;2023-09-19T09:12:13;97537.13;;;20.52;100.00
5283;BME280;15376;48.540;9.268;2023-09-19T09:14:47;97527.81;;;20.76;98.12
5283;BME280;15376;48.540;9.268;2023-09-19T09:17:15;97531.50;;;21.47;92.01
5283;BME280;15376;48.540;9.268;2023-09-19T09:19:41;97539.09;;;21.94;90.79
5283;BME280;15376;48.540;9.268;2023-09-19T09:22:11;97541.16;;;23.05;84.94
5283;BME280;15376;48.540;9.268;2023-09-19T09:24:37;97550.31;;;24.23;82.39
5283;BME280;15376;48.540;9.268;2023-09-19T09:27:15;97535.59;;;25.46;77.10
5283;BME280;15376;48.540;9.268;2023-09-19T09:32:28;97542.78;;;24.36;73.74
5283;BME280;15376;48.540;9.268;2023-09-19T09:34:57;97539.78;;;24.83;72.22
5283;BME280;15376;48.540;9.268;2023-09-19T09:37:24;97541.75;;;26.27;69.99
5283;BME280;15376;48.540;9.268;2023-09-19T09:39:58;97549.16;;;27.47;60.97
5283;BME280;15376;48.540;9.268;2023-09-19T09:45:23;97557.56;;;27.98;60.26
5283;BME280;15376;48.540;9.268;2023-09-19T09:48:15;97553.28;;;27.92;55.30
5283;BME280;15376;48.540;9.268;2023-09-19T09:50:47;97563.41;;;27.68;55.91
5283;BME280;15376;48.540;9.268;2023-09-19T09:58:30;97550.75;;;27.77;52.21
5283;BME280;15376;48.540;9.268;2023-09-19T10:00:57;97538.53;;;26.19;55.44
5283;BME280;15376;48.540;9.268;2023-09-19T10:03:35;97547.19;;;26.32;56.22
5283;BME280;15376;48.540;9.268;2023-09-19T10:06:10;97540.59;;;24.99;61.72
5283;BME280;15376;48.540;9.268;2023-09-19T10:09:08;97526.09;;;26.03;59.15
5283;BME280;15376;48.540;9.268;2023-09-19T10:11:47;97527.69;;;27.64;56.11
5283;BME280;15376;48.540;9.268;2023-09-19T10:14:25;97523.16;;;27.54;53.50
5283;BME280;15376;48.540;9.268;2023-09-19T10:16:57;97534.59;;;26.75;54.09
5283;BME280;15376;48.540;9.268;2023-09-19T10:19:30;97540.44;;;25.59;57.19
5283;BME280;15376;48.540;9.268;2023-09-19T10:22:02;97527.53;;;25.96;57.69
5283;BME280;15376;48.540;9.268;2023-09-19T10:24:28;97520.75;;;25.88;55.73
5283;BME280;15376;48.540;9.268;2023-09-19T10:26:56;97543.88;;;24.70;57.37
5283;BME280;15376;48.540;9.268;2023-09-19T10:29:24;97541.16;;;24.96;59.87
5283;BME280;15376;48.540;9.268;2023-09-19T10:31:52;97526.47;;;25.07;58.39
5283;BME280;15376;48.540;9.268;2023-09-19T10:34:19;97525.38;;;25.03;60.63
5283;BME280;15376;48.540;9.268;2023-09-19T10:36:46;97519.47;;;26.19;59.47
5283;BME280;15376;48.540;9.268;2023-09-19T10:39:16;97523.81;;;28.64;52.88
5283;BME280;15376;48.540;9.268;2023-09-19T10:41:49;97533.66;;;28.46;49.43
5283;BME280;15376;48.540;9.268;2023-09-19T10:44:23;97516.28;;;29.35;48.68
5283;BME280;15376;48.540;9.268;2023-09-19T10:46:49;97522.00;;;30.15;46.76
5283;BME280;15376;48.540;9.268;2023-09-19T10:49:14;97530.69;;;31.60;43.29
5283;BME280;15376;48.540;9.268;2023-09-19T10:51:42;97531.56;;;30.04;44.83
5283;BME280;15376;48.540;9.268;2023-09-19T10:54:12;97525.53;;;28.41;46.26
5283;BME280;15376;48.540;9.268;2023-09-19T10:56:42;97530.41;;;26.53;51.12
5283;BME280;15376;48.540;9.268;2023-09-19T10:59:11;97527.81;;;25.14;53.59
5283;BME280;15376;48.540;9.268;2023-09-19T11:01:54;97515.63;;;24.76;57.46
5283;BME280;15376;48.540;9.268;2023-09-19T11:04:31;97506.78;;;23.73;60.65
5283;BME280;15376;48.540;9.268;2023-09-19T11:07:00;97514.41;;;23.76;62.36
5283;BME280;15376;48.540;9.268;2023-09-19T11:15:07;97506.38;;;22.91;62.72
5283;BME280;15376;48.540;9.268;2023-09-19T11:17:38;97480.72;;;22.62;64.59
5283;BME280;15376;48.540;9.268;2023-09-19T11:30:42;97505.78;;;21.67;64.59
5283;BME280;15376;48.540;9.268;2023-09-19T11:36:14;97502.88;;;21.08;65.40
5283;BME280;15376;48.540;9.268;2023-09-19T11:49:16;97506.50;;;20.80;68.77
5283;BME280;15376;48.540;9.268;2023-09-19T11:51:45;97479.88;;;20.67;69.27
5283;BME280;15376;48.540;9.268;2023-09-19T11:54:13;97493.47;;;20.72;69.35
5283;BME280;15376;48.540;9.268;2023-09-19T11:56:43;97489.88;;;20.66;72.20
5283;BME280;15376;48.540;9.268;2023-09-19T11:59:10;97471.94;;;20.60;72.61
5283;BME280;15376;48.540;9.268;2023-09-19T12:01:37;97476.28;;;20.61;72.36
5283;BME280;15376;48.540;9.268;2023-09-19T12:04:08;97470.41;;;20.64;71.63
5283;BME280;15376;48.540;9.268;2023-09-19T12:06:36;97487.25;;;20.71;72.57
5283;BME280;15376;48.540;9.268;2023-09-19T12:09:04;97479.50;;;20.80;72.38
5283;BME280;15376;48.540;9.268;2023-09-19T12:11:32;97480.72;;;20.89;74.46
5283;BME280;15376;48.540;9.268;2023-09-19T12:13:59;97466.06;;;20.63;73.59
5283;BME280;15376;48.540;9.268;2023-09-19T12:16:26;97478.97;;;20.61;73.14
5283;BME280;15376;48.540;9.268;2023-09-19T12:18:56;97476.28;;;20.27;73.77
5283;BME280;15376;48.540;9.268;2023-09-19T12:21:31;97472.84;;;20.32;75.49
5283;BME280;15376;48.540;9.268;2023-09-19T12:24:13;97474.63;;;20.26;76.30
5283;BME280;15376;48.540;9.268;2023-09-19T12:26:47;97471.84;;;20.21;76.02
5283;BME280;15376;48.540;9.268;2023-09-19T12:29:20;97462.78;;;20.27;75.92
5283;BME280;15376;48.540;9.268;2023-09-19T12:31:55;97457.47;;;20.33;74.89
5283;BME280;15376;48.540;9.268;2023-09-19T12:34:24;97444.56;;;20.51;74.28
5283;BME280;15376;48.540;9.268;2023-09-19T12:37:11;97455.34;;;20.68;72.10
5283;BME280;15376;48.540;9.268;2023-09-19T12:39:44;97447.75;;;20.87;72.00
5283;BME280;15376;48.540;9.268;2023-09-19T12:42:26;97443.16;;;21.04;71.88
5283;BME280;15376;48.540;9.268;2023-09-19T12:44:58;97434.16;;;20.98;71.66
5283;BME280;15376;48.540;9.268;2023-09-19T12:47:27;97437.75;;;21.04;72.90
5283;BME280;15376;48.540;9.268;2023-09-19T12:50:09;97441.50;;;21.03;70.27
5283;BME280;15376;48.540;9.268;2023-09-19T12:52:49;97439.81;;;21.19;73.18
5283;BME280;15376;48.540;9.268;2023-09-19T12:55:28;97426.50;;;21.61;71.43
5283;BME280;15376;48.540;9.268;2023-09-19T12:57:58;97436.31;;;21.94;73.04
5283;BME280;15376;48.540;9.268;2023-09-19T13:00:34;97433.00;;;22.14;69.34
5283;BME280;15376;48.540;9.268;2023-09-19T13:06:05;97423.94;;;22.30;68.96
5283;BME280;15376;48.540;9.268;2023-09-19T13:08:38;97423.47;;;22.43;63.53
5283;BME280;15376;48.540;9.268;2023-09-19T13:13:51;97423.25;;;22.13;65.46
5283;BME280;15376;48.540;9.268;2023-09-19T13:16:21;97435.38;;;22.10;65.44
5283;BME280;15376;48.540;9.268;2023-09-19T13:18:54;97430.13;;;22.25;61.58
5283;BME280;15376;48.540;9.268;2023-09-19T13:21:34;97423.94;;;22.30;62.12
5283;BME280;15376;48.540;9.268;2023-09-19T13:24:24;97387.84;;;22.19;62.92
5283;BME280;15376;48.540;9.268;2023-09-19T13:26:56;97407.81;;;22.13;61.98
5283;BME280;15376;48.540;9.268;2023-09-19T13:29:22;97428.34;;;22.09;63.44
5283;BME280;15376;48.540;9.268;2023-09-19T13:31:48;97413.66;;;21.73;65.85
5283;BME280;15376;48.540;9.268;2023-09-19T13:34:14;97424.28;;;21.80;66.45
5283;BME280;15376;48.540;9.268;2023-09-19T13:36:41;97416.69;;;21.50;66.99
5283;BME280;15376;48.540;9.268;2023-09-19T13:39:07;97405.00;;;21.44;67.64
5283;BME280;15376;48.540;9.268;2023-09-19T13:41:34;97417.88;;;21.59;66.99
5283;BME280;15376;48.540;9.268;2023-09-19T13:44:04;97400.69;;;21.43;67.98
5283;BME280;15376;48.540;9.268;2023-09-19T13:46:30;97411.13;;;21.35;67.97
5283;BME280;15376;48.540;9.268;2023-09-19T13:48:58;97405.50;;;21.41;70.47
5283;BME280;15376;48.540;9.268;2023-09-19T13:51:25;97393.34;;;21.39;67.87
5283;BME280;15376;48.540;9.268;2023-09-19T13:53:51;97401.66;;;21.59;69.98
5283;BME280;15376;48.540;9.268;2023-09-19T13:56:16;97403.06;;;21.67;69.01
5283;BME280;15376;48.540;9.268;2023-09-19T13:58:42;97384.22;;;21.45;67.52
5283;BME280;15376;48.540;9.268;2023-09-19T14:01:08;97387.06;;;21.33;68.85
5283;BME280;15376;48.540;9.268;2023-09-19T14:03:38;97379.97;;;21.27;70.58
5283;BME280;15376;48.540;9.268;2023-09-19T14:06:04;97381.97;;;21.37;70.07
5283;BME280;15376;48.540;9.268;2023-09-19T14:08:30;97381.72;;;21.38;68.14
5283;BME280;15376;48.540;9.268;2023-09-19T14:10:55;97378.94;;;21.33;69.17